Terminal Aerodrome Forecast
Issued by NWS

Home | Current Version | Previous Version | Text Only | Print | Product List | Glossary On
Versions: 1 2 3 4 5 6 7 8 9 10 11 12 13 14 15 16 17 18 19 20 21
000
FTUS41 KPBZ 161100
TAFLBE
TAF
KLBE 161131Z 1612/1712 23006KT P6SM FEW009 BKN016 OVC026
      TEMPO 1612/1614 4SM -DZ BR BKN008
     FM161400 32005KT P6SM BKN050
     FM162200 31004KT P6SM SKC
     FM171000 00000KT 2SM BR FEW250=

USA.gov is the U.S. government's official web portal to all federal, state and local government web resources and services.